Time;durP1;ratioP1;P1;durP2;ratioP2;P2;SDS_P1;SDS_P2;PMS_P1;PMS_P2;Temp;Humidity;BMP_temperature;BMP_pressure;BME280_temperature;BME280_humidity;BME280_pressure;Samples;Min_cycle;Max_cycle;Signal;HPM_P1;HPM_P2
2021/09/02 00:00:46;;;;;;;19.95;8.80;;;;;;;15.14;83.78;102639.00;10138166;28;20066;-69
2021/09/02 00:05:43;;;;;;;22.95;8.25;;;;;;;15.13;83.69;102626.34;10140987;28;20042;-69
2021/09/02 00:10:40;;;;;;;22.13;8.80;;;;;;;15.13;83.28;102626.34;10141945;28;20108;-69
2021/09/02 00:15:37;;;;;;;21.90;8.75;;;;;;;15.08;83.67;102626.44;10135986;28;20050;-69
2021/09/02 00:20:33;;;;;;;23.73;9.10;;;;;;;15.04;84.03;102622.63;10134828;28;20046;-68
2021/09/02 00:25:30;;;;;;;26.65;10.68;;;;;;;15.01;84.15;102624.06;10141255;28;20112;-67
2021/09/02 00:30:26;;;;;;;30.35;10.73;;;;;;;14.99;84.11;102628.25;10136519;28;20042;-67
2021/09/02 00:35:23;;;;;;;19.30;9.50;;;;;;;14.92;84.28;102621.19;10134952;28;20517;-67
2021/09/02 00:40:19;;;;;;;21.35;9.80;;;;;;;14.96;84.02;102620.59;10141123;28;20138;-66
2021/09/02 00:45:16;;;;;;;22.90;9.95;;;;;;;14.93;84.06;102620.06;10142664;28;20106;-68
2021/09/02 00:50:12;;;;;;;24.65;11.82;;;;;;;14.91;83.66;102614.03;10138968;28;20077;-68
2021/09/02 00:55:09;;;;;;;23.65;10.18;;;;;;;14.84;84.21;102610.84;10124035;28;20046;-67
2021/09/02 01:00:09;;;;;;;20.83;9.63;;;;;;;14.78;84.47;102609.28;10142192;28;20046;-70
2021/09/02 01:05:07;;;;;;;22.75;10.40;;;;;;;14.76;84.95;102605.22;10135854;28;20154;-69
2021/09/02 01:10:05;;;;;;;19.67;9.75;;;;;;;14.78;84.66;102603.78;10143522;28;20109;-68
2021/09/02 01:15:24;;;;;;;17.98;8.90;;;;;;;14.77;84.67;102602.16;10142788;28;20054;-68
2021/09/02 01:20:24;;;;;;;22.52;10.25;;;;;;;14.76;84.35;102600.53;10139372;28;20077;-68
2021/09/02 01:25:23;;;;;;;21.08;8.88;;;;;;;14.71;84.52;102603.34;10137583;28;20054;-68
2021/09/02 01:30:20;;;;;;;20.05;9.43;;;;;;;14.68;85.22;102598.47;10137749;28;20047;-68
2021/09/02 01:35:18;;;;;;;20.80;9.27;;;;;;;14.79;84.73;102599.94;10138460;28;20088;-68
2021/09/02 01:40:27;;;;;;;17.90;9.27;;;;;;;14.83;84.77;102595.47;10142186;28;20077;-67
2021/09/02 01:45:23;;;;;;;18.40;8.40;;;;;;;14.84;84.63;102594.34;10143690;28;20101;-67
2021/09/02 01:50:21;;;;;;;18.02;8.95;;;;;;;14.89;84.45;102599.75;10150106;28;20077;-70
2021/09/02 01:55:20;;;;;;;21.17;9.05;;;;;;;14.81;84.87;102603.22;10130292;28;20477;-70
2021/09/02 02:00:18;;;;;;;18.88;7.28;;;;;;;14.93;84.31;102600.78;10139419;28;20074;-68
2021/09/02 02:05:15;;;;;;;16.27;8.27;;;;;;;14.89;84.25;102608.00;10136112;28;20554;-67
2021/09/02 02:10:15;;;;;;;19.35;7.35;;;;;;;14.97;84.39;102605.69;10144063;28;20137;-69
2021/09/02 02:15:13;;;;;;;18.75;7.18;;;;;;;15.04;84.23;102600.59;10146992;28;20111;-69
2021/09/02 02:20:11;;;;;;;15.68;7.00;;;;;;;15.02;84.11;102602.88;10140974;28;20043;-70
2021/09/02 02:25:09;;;;;;;23.58;7.40;;;;;;;15.08;83.99;102596.13;10151162;28;20077;-70
2021/09/02 02:30:10;;;;;;;18.23;6.88;;;;;;;15.08;83.85;102599.69;10138968;28;20043;-69
2021/09/02 02:35:07;;;;;;;20.17;8.30;;;;;;;15.05;83.65;102596.75;10142489;28;20112;-68
2021/09/02 02:40:07;;;;;;;21.35;8.00;;;;;;;14.95;84.05;102597.75;10143955;28;20050;-69
2021/09/02 02:45:03;;;;;;;16.45;7.13;;;;;;;15.00;84.15;102594.09;10147803;28;20096;-70
2021/09/02 02:50:02;;;;;;;19.40;6.53;;;;;;;15.03;84.09;102590.72;10141900;28;20062;-68
2021/09/02 02:54:58;;;;;;;18.33;6.53;;;;;;;15.09;83.93;102592.28;10147421;28;20137;-68
2021/09/02 02:59:55;;;;;;;15.88;6.28;;;;;;;15.14;83.85;102583.91;10130015;28;20133;-69
2021/09/02 03:04:52;;;;;;;17.42;6.80;;;;;;;15.20;82.95;102576.34;10141072;28;20046;-69
2021/09/02 03:09:48;;;;;;;19.67;6.30;;;;;;;15.12;82.87;102575.94;10139791;28;20475;-70
2021/09/02 03:14:45;;;;;;;14.35;6.13;;;;;;;15.13;82.89;102582.25;10144929;28;20129;-69
2021/09/02 03:19:41;;;;;;;16.38;6.80;;;;;;;15.12;83.64;102580.63;10148685;28;20465;-70
2021/09/02 03:24:38;;;;;;;20.85;7.00;;;;;;;15.12;83.31;102586.16;10149260;28;20121;-70
2021/09/02 03:29:34;;;;;;;16.90;6.60;;;;;;;15.15;83.23;102585.53;10147528;28;20039;-69
2021/09/02 03:34:33;;;;;;;19.88;7.68;;;;;;;15.11;83.13;102587.28;10155580;28;20046;-66
2021/09/02 03:39:31;;;;;;;27.17;8.35;;;;;;;15.11;83.15;102590.03;10156437;28;20414;-67
2021/09/02 03:44:28;;;;;;;20.63;6.85;;;;;;;15.12;83.37;102591.66;10149862;28;20540;-71
2021/09/02 03:49:26;;;;;;;21.38;7.95;;;;;;;15.09;82.90;102597.78;10125983;28;20066;-66
2021/09/02 03:54:23;;;;;;;20.58;7.00;;;;;;;15.07;82.97;102600.81;10152894;28;20081;-67
2021/09/02 03:59:19;;;;;;;14.95;6.55;;;;;;;15.09;83.60;102592.28;10144506;28;20049;-70
2021/09/02 04:04:16;;;;;;;18.45;7.00;;;;;;;15.14;83.41;102600.44;10141680;28;20471;-68
2021/09/02 04:09:13;;;;;;;26.13;7.80;;;;;;;15.16;82.98;102603.72;10142250;28;20133;-69
2021/09/02 04:14:09;;;;;;;18.88;7.22;;;;;;;15.19;82.69;102605.84;10137221;28;20138;-68
2021/09/02 04:19:06;;;;;;;19.10;8.02;;;;;;;15.17;82.29;102597.06;10146551;28;20137;-68
2021/09/02 04:24:02;;;;;;;20.00;7.47;;;;;;;15.21;82.28;102603.63;10140490;28;20165;-69
2021/09/02 04:28:59;;;;;;;16.98;8.05;;;;;;;15.25;82.39;102601.91;10142471;28;20042;-69
2021/09/02 04:33:55;;;;;;;18.10;8.40;;;;;;;15.21;82.35;102600.84;10144524;28;20460;-69
2021/09/02 04:38:52;;;;;;;22.98;9.15;;;;;;;15.18;81.95;102601.47;10143655;28;20545;-68
2021/09/02 04:43:48;;;;;;;23.90;9.35;;;;;;;15.09;82.50;102608.81;10142575;28;20042;-69
2021/09/02 04:48:45;;;;;;;22.48;8.82;;;;;;;15.13;82.23;102615.31;10140568;28;20050;-69
2021/09/02 04:53:45;;;;;;;21.63;8.65;;;;;;;15.12;82.72;102602.69;10139751;28;20046;-69
2021/09/02 04:58:41;;;;;;;22.75;8.30;;;;;;;15.07;82.50;102606.34;10135517;28;20507;-69
2021/09/02 05:03:38;;;;;;;22.55;8.57;;;;;;;15.15;82.45;102607.56;10138438;28;20112;-68
2021/09/02 05:08:34;;;;;;;22.27;8.18;;;;;;;15.19;82.09;102614.13;10140584;28;20042;-68
2021/09/02 05:13:31;;;;;;;18.92;8.75;;;;;;;15.26;82.32;102614.53;10151646;28;20134;-67
2021/09/02 05:18:27;;;;;;;22.02;8.60;;;;;;;15.20;81.32;102618.53;10151257;28;20058;-68
2021/09/02 05:23:24;;;;;;;22.90;9.02;;;;;;;15.18;81.78;102620.75;10150688;28;20246;-68
2021/09/02 05:28:20;;;;;;;21.92;8.75;;;;;;;15.18;82.28;102622.69;10151040;28;20734;-68
2021/09/02 05:33:18;;;;;;;22.85;9.40;;;;;;;15.18;82.65;102626.28;10143558;28;20046;-67
2021/09/02 05:38:15;;;;;;;21.80;8.80;;;;;;;15.27;82.59;102621.69;10150103;28;20062;-68
2021/09/02 05:43:12;;;;;;;19.75;9.70;;;;;;;15.33;82.49;102609.44;10141118;28;20054;-69
2021/09/02 05:48:08;;;;;;;19.20;9.70;;;;;;;15.29;82.16;102619.47;10146755;28;20066;-67
2021/09/02 05:53:05;;;;;;;23.80;9.88;;;;;;;15.26;81.83;102625.56;10152658;28;20054;-70
2021/09/02 05:58:01;;;;;;;24.00;9.80;;;;;;;15.19;82.27;102636.16;10141331;28;20047;-70
2021/09/02 06:02:58;;;;;;;24.55;10.40;;;;;;;15.21;82.31;102633.91;10141262;28;20130;-68
2021/09/02 06:07:54;;;;;;;25.15;11.05;;;;;;;15.17;82.57;102638.41;10137261;28;20460;-69
2021/09/02 06:12:51;;;;;;;26.67;11.10;;;;;;;15.30;81.82;102636.81;10141635;28;20086;-69
2021/09/02 06:17:47;;;;;;;27.30;10.80;;;;;;;15.29;81.58;102636.00;10144858;28;20117;-68
2021/09/02 06:22:44;;;;;;;23.58;11.10;;;;;;;15.17;82.05;102643.09;10139622;28;20129;-68
2021/09/02 06:27:40;;;;;;;25.25;11.38;;;;;;;15.28;81.93;102650.88;10143628;28;20141;-68
2021/09/02 06:32:37;;;;;;;23.30;9.73;;;;;;;15.36;82.07;102652.94;10141772;28;20141;-68
2021/09/02 06:37:33;;;;;;;20.17;10.15;;;;;;;15.41;81.74;102648.44;10140404;28;20069;-67
2021/09/02 06:42:30;;;;;;;29.30;10.77;;;;;;;15.49;81.05;102645.00;10141078;28;20077;-68
2021/09/02 06:47:26;;;;;;;20.35;10.50;;;;;;;15.53;81.09;102651.53;10137282;28;20136;-67
2021/09/02 06:52:23;;;;;;;28.27;12.07;;;;;;;15.54;81.22;102658.69;10141394;28;20493;-70
2021/09/02 06:57:19;;;;;;;28.55;10.82;;;;;;;15.66;80.46;102660.94;10145216;28;20084;-68
2021/09/02 07:02:16;;;;;;;20.92;9.85;;;;;;;15.61;80.66;102670.13;10132993;28;20141;-68
2021/09/02 07:07:13;;;;;;;27.75;10.75;;;;;;;15.64;80.30;102664.03;10144925;28;20706;-69
2021/09/02 07:12:10;;;;;;;26.75;12.10;;;;;;;15.72;79.45;102676.31;10130843;28;20039;-69
2021/09/02 07:17:06;;;;;;;21.85;11.88;;;;;;;15.57;80.55;102675.44;10126431;28;20517;-69
2021/09/02 07:22:03;;;;;;;21.80;9.68;;;;;;;15.68;79.52;102675.25;10143695;28;20077;-69
2021/09/02 07:26:59;;;;;;;25.75;10.02;;;;;;;15.66;79.92;102683.81;10145098;28;20559;-70
2021/09/02 07:31:56;;;;;;;20.95;10.18;;;;;;;15.71;79.57;102689.28;10141959;28;20170;-69
2021/09/02 07:36:52;;;;;;;19.02;9.13;;;;;;;15.74;78.57;102691.41;10140180;28;20070;-69
2021/09/02 07:41:49;;;;;;;20.75;8.48;;;;;;;15.74;78.50;102691.41;10133752;28;20493;-69
2021/09/02 07:46:46;;;;;;;19.65;9.88;;;;;;;15.75;78.54;102701.31;10141133;28;20564;-69
2021/09/02 07:51:43;;;;;;;20.83;9.68;;;;;;;15.83;78.61;102696.22;10145521;28;20684;-69
2021/09/02 07:56:40;;;;;;;23.63;10.18;;;;;;;15.89;78.40;102700.53;10135042;28;20112;-70
2021/09/02 08:01:36;;;;;;;25.58;9.45;;;;;;;15.86;78.56;102703.91;10125742;28;20042;-69
2021/09/02 08:06:33;;;;;;;24.35;9.25;;;;;;;15.89;78.44;102697.75;10127650;28;20047;-68
2021/09/02 08:11:31;;;;;;;22.98;9.20;;;;;;;15.87;79.20;102700.00;10138292;28;20054;-69
2021/09/02 08:16:27;;;;;;;26.02;9.98;;;;;;;15.89;78.22;102698.56;10145428;28;20043;-67
2021/09/02 08:21:25;;;;;;;18.73;7.40;;;;;;;16.04;78.08;102711.25;10144793;28;20145;-69
2021/09/02 08:26:22;;;;;;;18.55;7.82;;;;;;;16.06;76.53;102702.66;10144509;28;20101;-68
2021/09/02 08:31:19;;;;;;;23.17;7.63;;;;;;;16.12;75.54;102715.25;10144046;28;20457;-68
2021/09/02 08:36:15;;;;;;;17.83;7.30;;;;;;;16.16;75.03;102708.00;10142407;28;20738;-69
2021/09/02 08:41:13;;;;;;;18.10;7.18;;;;;;;16.25;74.10;102705.34;10143147;28;20471;-66
2021/09/02 08:46:11;;;;;;;14.48;6.13;;;;;;;16.28;73.18;102704.69;10136338;28;20126;-69
2021/09/02 08:51:10;;;;;;;21.98;6.85;;;;;;;16.26;72.65;102701.44;10117956;28;20482;-69
2021/09/02 08:56:07;;;;;;;19.38;7.88;;;;;;;16.34;73.14;102695.19;10141678;28;20070;-69
2021/09/02 09:01:06;;;;;;;18.15;7.45;;;;;;;16.28;73.45;102694.47;10141807;28;20070;-69
2021/09/02 09:06:06;;;;;;;15.25;7.90;;;;;;;16.28;71.67;102699.19;10142634;28;20137;-69
2021/09/02 09:11:18;;;;;;;14.70;6.55;;;;;;;16.44;70.92;102703.25;10142737;28;20070;-68
2021/09/02 09:16:14;;;;;;;20.77;7.05;;;;;;;16.41;70.60;102703.88;10134126;28;20121;-69
2021/09/02 09:21:17;;;;;;;19.63;6.78;;;;;;;16.41;70.92;102699.16;10126630;28;20050;-69
2021/09/02 09:26:13;;;;;;;17.88;6.63;;;;;;;16.39;70.37;102711.66;10129532;28;20089;-68
2021/09/02 09:31:33;;;;;;;15.63;6.80;;;;;;;16.55;71.31;102712.94;10128576;28;20047;-67
2021/09/02 09:36:32;;;;;;;17.63;7.00;;;;;;;16.53;70.55;102717.97;10131775;28;20046;-70
2021/09/02 09:41:42;;;;;;;18.55;8.23;;;;;;;16.49;69.20;102727.97;10141953;28;20042;-68
2021/09/02 09:46:39;;;;;;;13.57;6.45;;;;;;;16.39;70.43;102733.72;10138373;28;20053;-68
2021/09/02 09:51:35;;;;;;;14.75;6.60;;;;;;;16.48;69.88;102729.13;10142825;28;20046;-69
2021/09/02 09:56:32;;;;;;;15.77;6.82;;;;;;;16.63;69.93;102734.28;10129105;28;20133;-66
2021/09/02 10:01:29;;;;;;;16.98;7.38;;;;;;;16.61;69.41;102744.00;10143278;28;20471;-68
2021/09/02 10:06:26;;;;;;;19.52;8.88;;;;;;;16.62;70.02;102738.19;10146285;28;20093;-68
2021/09/02 10:11:23;;;;;;;13.88;7.90;;;;;;;16.61;69.80;102742.06;10145232;28;20133;-69
2021/09/02 10:16:21;;;;;;;24.77;10.25;;;;;;;16.45;70.14;102738.00;10146204;28;20129;-67
2021/09/02 10:21:20;;;;;;;17.90;8.85;;;;;;;16.48;69.95;102742.13;10146627;28;20460;-70
2021/09/02 10:26:34;;;;;;;14.07;7.32;;;;;;;16.53;70.05;102745.56;10146887;28;20069;-70
2021/09/02 10:31:30;;;;;;;;;;;;;;;16.62;69.26;102743.72;10145903;28;20074;-69
2021/09/02 10:36:27;;;;;;;16.95;7.10;;;;;;;16.68;69.55;102740.84;10141099;28;20400;-69
2021/09/02 10:41:50;;;;;;;16.00;8.10;;;;;;;16.77;68.72;102744.50;10142612;28;20085;-69
2021/09/02 10:46:50;;;;;;;12.85;7.78;;;;;;;16.89;69.13;102753.06;10135723;28;20046;-69
2021/09/02 10:51:49;;;;;;;17.98;8.70;;;;;;;16.98;69.70;102745.69;10133760;28;20563;-69
2021/09/02 10:57:01;;;;;;;17.25;7.72;;;;;;;16.89;67.88;102744.78;10135866;28;20093;-69
2021/09/02 11:01:57;;;;;;;26.05;8.88;;;;;;;16.89;68.58;102747.56;10135672;28;20133;-69
2021/09/02 11:06:55;;;;;;;15.95;8.70;;;;;;;16.92;68.89;102758.00;10122411;28;20142;-69
2021/09/02 11:11:51;;;;;;;14.73;7.63;;;;;;;16.85;69.24;102762.31;10145273;28;20092;-68
2021/09/02 11:16:47;;;;;;;16.17;7.60;;;;;;;16.88;69.23;102762.50;10144094;28;20098;-68
2021/09/02 11:21:44;;;;;;;15.30;6.97;;;;;;;16.89;68.66;102753.06;10142395;28;20082;-68
2021/09/02 11:26:43;;;;;;;13.98;7.22;;;;;;;16.95;69.53;102757.38;10141499;28;20077;-68
2021/09/02 11:31:40;;;;;;;18.95;8.63;;;;;;;16.99;68.95;102750.09;10137816;28;20050;-67
2021/09/02 11:36:43;;;;;;;20.30;8.48;;;;;;;16.94;68.98;102733.66;10137277;28;20211;-67
2021/09/02 11:41:40;;;;;;;;;;;;;;;17.04;68.68;102744.44;10143772;28;20625;-69
2021/09/02 11:46:36;;;;;;;17.85;6.70;;;;;;;17.05;69.19;102745.25;10138050;28;20009;-67
2021/09/02 11:51:33;;;;;;;13.48;7.10;;;;;;;17.00;68.01;102751.72;10132418;28;20156;-67
2021/09/02 11:56:31;;;;;;;16.13;8.25;;;;;;;16.97;68.69;102746.00;10137863;28;20050;-68
2021/09/02 12:01:27;;;;;;;19.95;8.45;;;;;;;16.97;69.25;102744.06;10141416;28;20598;-68
2021/09/02 12:06:29;;;;;;;14.70;6.82;;;;;;;17.03;69.23;102742.81;10141379;28;20157;-68
2021/09/02 12:11:27;;;;;;;16.65;7.43;;;;;;;17.14;68.38;102742.56;10127842;28;20054;-67
2021/09/02 12:16:31;;;;;;;15.55;7.55;;;;;;;17.21;68.35;102742.94;10127348;28;20047;-68
2021/09/02 12:21:30;;;;;;;16.85;7.10;;;;;;;17.14;67.81;102742.56;10140260;28;20053;-68
2021/09/02 12:26:48;;;;;;;15.43;6.15;;;;;;;17.28;68.34;102740.56;10135520;28;20504;-67
2021/09/02 12:31:46;;;;;;;14.38;7.00;;;;;;;17.27;68.13;102747.22;10139548;28;20059;-68
2021/09/02 12:36:42;;;;;;;19.08;7.03;;;;;;;17.27;68.86;102741.69;10128068;28;20568;-68
2021/09/02 12:41:44;;;;;;;19.83;7.00;;;;;;;17.24;68.15;102742.31;10136377;28;21377;-68
2021/09/02 12:46:50;;;;;;;20.25;6.93;;;;;;;17.34;67.78;102731.00;10138050;28;20050;-67
2021/09/02 12:52:05;;;;;;;15.80;5.60;;;;;;;17.42;67.65;102723.91;10133113;28;20099;-68
2021/09/02 12:57:02;;;;;;;14.93;6.60;;;;;;;17.50;66.67;102722.31;10138643;28;20081;-68
2021/09/02 13:01:58;;;;;;;14.00;5.97;;;;;;;17.48;67.15;102719.06;10122676;28;20137;-68
2021/09/02 13:06:55;;;;;;;14.85;6.15;;;;;;;17.45;67.25;102710.25;10123674;28;20046;-68
2021/09/02 13:11:51;;;;;;;13.60;5.43;;;;;;;17.48;66.89;102702.47;10133359;28;20141;-69
2021/09/02 13:16:51;;;;;;;14.48;6.28;;;;;;;17.53;67.60;102699.56;10129015;28;20046;-69
2021/09/02 13:21:48;;;;;;;15.02;6.80;;;;;;;17.56;66.85;102690.63;10132719;28;20393;-66
2021/09/02 13:26:44;;;;;;;15.20;5.38;;;;;;;17.42;67.21;102686.00;10136733;28;20479;-68
2021/09/02 13:31:41;;;;;;;13.85;6.07;;;;;;;17.41;68.34;102680.78;10140415;28;20622;-68
2021/09/02 13:36:37;;;;;;;14.27;6.40;;;;;;;17.46;68.93;102675.94;10138697;28;20046;-68
2021/09/02 13:41:35;;;;;;;15.55;6.30;;;;;;;17.50;68.26;102678.06;10149285;28;20050;-66
2021/09/02 13:46:32;;;;;;;16.50;7.15;;;;;;;17.49;68.15;102670.91;10145108;28;20078;-68
2021/09/02 13:51:28;;;;;;;15.57;6.40;;;;;;;17.48;67.96;102664.56;10137817;28;20047;-67
2021/09/02 13:56:25;;;;;;;15.35;5.90;;;;;;;17.52;68.34;102661.97;10132005;28;20466;-67
2021/09/02 14:01:22;;;;;;;16.00;6.25;;;;;;;17.51;67.33;102665.88;10139883;28;20427;-68
2021/09/02 14:06:19;;;;;;;16.13;6.53;;;;;;;17.52;67.08;102665.56;10138034;28;20051;-67
2021/09/02 14:11:16;;;;;;;17.77;6.65;;;;;;;17.55;67.47;102664.13;10137721;28;20105;-68
2021/09/02 14:16:12;;;;;;;15.27;6.75;;;;;;;17.55;67.11;102653.06;10140769;28;20145;-68
2021/09/02 14:21:09;;;;;;;14.65;6.03;;;;;;;17.63;66.73;102649.50;10149392;28;20525;-68
2021/09/02 14:26:05;;;;;;;16.88;6.80;;;;;;;17.63;66.36;102655.03;10149698;28;20085;-66
2021/09/02 14:31:02;;;;;;;14.27;5.53;;;;;;;17.53;66.37;102638.72;10146797;28;20085;-67
2021/09/02 14:35:58;;;;;;;18.58;6.55;;;;;;;17.59;66.04;102642.97;10144818;28;20484;-67
2021/09/02 14:40:55;;;;;;;15.18;6.70;;;;;;;17.59;66.90;102641.03;10140917;28;20129;-68
2021/09/02 14:45:51;;;;;;;14.95;5.47;;;;;;;17.61;66.70;102635.16;10145990;28;20133;-67
2021/09/02 14:50:48;;;;;;;15.88;6.28;;;;;;;17.55;66.92;102631.72;10137437;28;20043;-68
2021/09/02 14:55:44;;;;;;;25.27;11.95;;;;;;;17.58;66.97;102628.31;10138180;28;20157;-65
2021/09/02 15:00:41;;;;;;;12.52;6.28;;;;;;;17.52;67.46;102626.00;10144862;28;20129;-66
2021/09/02 15:05:38;;;;;;;15.75;6.38;;;;;;;17.43;68.38;102624.03;10138644;28;20487;-67
2021/09/02 15:10:34;;;;;;;17.55;7.18;;;;;;;17.48;67.96;102619.50;10127366;28;20416;-67
2021/09/02 15:15:33;;;;;;;17.70;7.25;;;;;;;17.43;68.96;102623.22;10136655;28;20100;-66
2021/09/02 15:20:30;;;;;;;15.07;6.93;;;;;;;17.43;69.43;102612.97;10138073;28;20080;-68
2021/09/02 15:25:27;;;;;;;18.50;6.72;;;;;;;17.42;69.07;102625.16;10139080;28;20729;-67
2021/09/02 15:30:23;;;;;;;18.33;6.85;;;;;;;17.41;69.99;102609.72;10146033;28;20129;-67
2021/09/02 15:35:20;;;;;;;15.50;7.07;;;;;;;17.35;69.42;102610.97;10143840;28;20501;-67
2021/09/02 15:40:17;;;;;;;13.50;6.65;;;;;;;17.32;68.13;102628.22;10141920;28;20080;-67
2021/09/02 15:45:13;;;;;;;13.80;7.07;;;;;;;17.22;68.03;102622.97;10141268;28;20463;-66
2021/09/02 15:50:10;;;;;;;17.15;6.63;;;;;;;17.20;67.81;102614.16;10142255;28;20050;-68
2021/09/02 15:55:07;;;;;;;13.15;6.25;;;;;;;17.24;67.94;102612.38;10145004;28;20070;-68
2021/09/02 16:00:05;;;;;;;17.60;6.70;;;;;;;17.29;67.39;102606.75;10144964;28;20481;-68
2021/09/02 16:05:02;;;;;;;13.90;6.28;;;;;;;17.36;67.71;102596.03;10137223;28;20533;-68
2021/09/02 16:09:59;;;;;;;14.90;6.38;;;;;;;17.34;66.53;102587.25;10144178;28;20093;-69
2021/09/02 16:14:56;;;;;;;16.13;7.15;;;;;;;17.31;66.00;102585.09;10138927;28;20050;-69
2021/09/02 16:19:52;;;;;;;13.50;6.75;;;;;;;17.25;66.48;102578.09;10139279;28;20042;-66
2021/09/02 16:24:49;;;;;;;12.90;6.63;;;;;;;17.25;67.26;102573.38;10141188;28;20474;-68
2021/09/02 16:29:45;;;;;;;17.80;6.53;;;;;;;17.16;68.07;102580.00;10142002;28;20137;-67
2021/09/02 16:34:43;;;;;;;12.57;5.88;;;;;;;17.23;67.88;102566.53;10121912;28;20042;-67
2021/09/02 16:39:39;;;;;;;14.40;6.97;;;;;;;17.25;67.88;102567.03;10138918;28;20092;-68
2021/09/02 16:44:36;;;;;;;14.52;6.93;;;;;;;17.21;68.18;102554.97;10136605;28;20044;-68
2021/09/02 16:49:32;;;;;;;18.85;6.28;;;;;;;17.22;67.58;102553.84;10143606;28;20054;-67
2021/09/02 16:54:30;;;;;;;16.23;6.45;;;;;;;17.20;67.78;102543.09;10131405;28;20353;-68
2021/09/02 16:59:26;;;;;;;14.32;6.95;;;;;;;17.16;67.36;102549.59;10126420;28;20065;-68
2021/09/02 17:04:23;;;;;;;15.00;7.07;;;;;;;17.11;67.61;102544.22;10140426;28;20074;-69
2021/09/02 17:09:19;;;;;;;15.77;7.00;;;;;;;17.04;67.69;102539.94;10146835;28;20042;-68
2021/09/02 17:14:16;;;;;;;17.23;7.40;;;;;;;16.99;66.69;102537.31;10146188;28;20100;-67
2021/09/02 17:19:14;;;;;;;15.38;7.82;;;;;;;16.97;66.83;102544.31;10149550;28;20042;-68
2021/09/02 17:24:11;;;;;;;18.30;7.43;;;;;;;16.87;66.96;102528.78;10147240;28;20153;-67
2021/09/02 17:29:08;;;;;;;17.02;7.95;;;;;;;16.80;67.23;102529.25;10156510;28;20035;-66
2021/09/02 17:34:04;;;;;;;16.08;7.60;;;;;;;16.81;67.26;102519.03;10144128;28;20050;-68
2021/09/02 17:39:03;;;;;;;14.23;6.22;;;;;;;16.77;68.26;102506.94;10147369;28;20420;-68
2021/09/02 17:44:00;;;;;;;14.13;6.82;;;;;;;16.81;67.83;102513.50;10148783;28;20129;-67
2021/09/02 17:48:56;;;;;;;12.43;6.68;;;;;;;16.77;67.53;102502.22;10136751;28;20050;-67
2021/09/02 17:53:53;;;;;;;16.60;7.07;;;;;;;16.76;67.59;102506.13;10142670;28;20142;-69
2021/09/02 17:58:49;;;;;;;16.15;6.90;;;;;;;16.70;67.69;102501.06;10138360;28;20066;-68
2021/09/02 18:03:47;;;;;;;16.55;6.60;;;;;;;16.64;67.21;102503.16;10140849;28;20112;-68
2021/09/02 18:08:43;;;;;;;11.18;6.10;;;;;;;16.65;66.88;102503.94;10137232;28;20074;-68
2021/09/02 18:13:40;;;;;;;17.80;6.05;;;;;;;16.67;67.80;102507.22;10133225;28;20133;-68
2021/09/02 18:18:36;;;;;;;15.23;6.35;;;;;;;16.69;67.90;102504.97;10125627;28;20072;-68
2021/09/02 18:23:33;;;;;;;16.67;7.05;;;;;;;16.68;66.95;102503.31;10129043;28;20042;-68
2021/09/02 18:28:29;;;;;;;15.85;7.30;;;;;;;16.60;67.34;102497.44;10140727;28;20136;-68
2021/09/02 18:33:26;;;;;;;13.75;6.43;;;;;;;16.62;68.19;102494.34;10134607;28;20474;-67
2021/09/02 18:38:22;;;;;;;15.32;6.68;;;;;;;16.68;68.36;102497.78;10135361;28;20168;-68
2021/09/02 18:43:22;;;;;;;14.02;7.63;;;;;;;16.66;68.05;102505.56;10130662;28;20126;-67
2021/09/02 18:48:19;;;;;;;17.40;7.60;;;;;;;16.62;67.65;102502.63;10128848;28;20477;-67
2021/09/02 18:53:18;;;;;;;15.18;6.85;;;;;;;16.56;67.61;102490.91;10135982;28;20069;-68
2021/09/02 18:58:14;;;;;;;15.30;6.32;;;;;;;16.54;68.32;102493.16;10127791;28;20585;-67
2021/09/02 19:03:13;;;;;;;16.73;7.25;;;;;;;16.46;68.40;102493.94;10124214;28;20118;-68
2021/09/02 19:08:11;;;;;;;13.75;6.70;;;;;;;16.46;67.57;102496.69;10127803;28;20053;-69
2021/09/02 19:13:08;;;;;;;12.35;7.85;;;;;;;16.47;67.21;102492.78;10130857;28;20069;-68
2021/09/02 19:18:04;;;;;;;14.93;8.35;;;;;;;16.44;67.43;102490.66;10121198;28;20488;-68
2021/09/02 19:23:01;;;;;;;13.85;7.80;;;;;;;16.41;67.74;102485.78;10128418;28;20081;-67
2021/09/02 19:28:02;;;;;;;12.68;7.53;;;;;;;16.42;67.87;102484.63;10127020;28;20054;-67
2021/09/02 19:33:00;;;;;;;14.02;7.45;;;;;;;16.36;67.84;102483.13;10138822;28;20134;-67
2021/09/02 19:37:58;;;;;;;16.23;7.15;;;;;;;16.32;68.32;102482.16;10129464;28;20050;-67
2021/09/02 19:42:54;;;;;;;16.77;7.05;;;;;;;16.34;68.66;102477.13;10133764;28;20778;-68
2021/09/02 19:47:52;;;;;;;12.40;7.32;;;;;;;16.36;69.13;102470.16;10122066;28;20134;-70
2021/09/02 19:53:06;;;;;;;16.92;7.38;;;;;;;16.38;69.14;102478.09;10136827;28;20509;-69
2021/09/02 19:58:08;;;;;;;14.32;7.10;;;;;;;16.40;69.75;102465.63;10127067;28;20124;-69
2021/09/02 20:03:44;;;;;;;11.82;6.57;;;;;;;16.38;69.31;102464.31;10140501;28;20038;-69
2021/09/02 20:08:43;;;;;;;15.73;6.82;;;;;;;16.34;69.32;102474.38;10145485;28;20125;-69
2021/09/02 20:13:39;;;;;;;13.05;5.63;;;;;;;16.28;70.50;102462.63;10145761;28;20121;-68
2021/09/02 20:18:37;;;;;;;16.02;7.28;;;;;;;16.20;70.28;102466.97;10145602;28;20147;-70
2021/09/02 20:23:34;;;;;;;11.27;6.38;;;;;;;16.17;69.83;102462.06;10141773;28;20112;-70
2021/09/02 20:28:33;;;;;;;17.48;8.10;;;;;;;16.17;69.33;102453.78;10143125;28;20038;-69
2021/09/02 20:33:29;;;;;;;20.25;11.90;;;;;;;16.09;69.68;102449.03;10143049;28;20066;-68
2021/09/02 20:38:31;;;;;;;19.20;7.75;;;;;;;16.06;70.71;102444.13;10135162;28;20133;-68
2021/09/02 20:43:28;;;;;;;14.10;8.73;;;;;;;16.01;70.22;102435.97;10136395;28;20129;-68
2021/09/02 20:48:27;;;;;;;24.42;10.23;;;;;;;15.96;70.13;102434.13;10139482;28;20279;-68
2021/09/02 20:53:34;;;;;;;19.85;9.82;;;;;;;15.88;70.69;102436.84;10139343;28;20046;-70
2021/09/02 20:58:33;;;;;;;19.13;9.63;;;;;;;15.77;71.29;102431.56;10126732;28;20046;-68
2021/09/02 21:03:30;;;;;;;16.52;9.65;;;;;;;15.71;71.66;102427.31;10138587;28;20046;-67
2021/09/02 21:08:28;;;;;;;21.05;9.20;;;;;;;15.61;72.33;102427.50;10138647;28;20058;-69
2021/09/02 21:13:25;;;;;;;18.35;9.43;;;;;;;15.51;72.76;102419.47;10140162;28;20857;-69
2021/09/02 21:18:21;;;;;;;18.70;9.88;;;;;;;15.44;73.54;102419.06;10131522;28;20050;-69
2021/09/02 21:23:25;;;;;;;21.80;10.70;;;;;;;15.33;73.59;102424.78;10132758;28;20125;-68
2021/09/02 21:28:37;;;;;;;18.38;9.65;;;;;;;15.21;73.98;102424.50;10139553;28;20484;-68
2021/09/02 21:34:12;;;;;;;17.45;9.88;;;;;;;15.13;74.44;102439.00;10137845;28;20050;-68
2021/09/02 21:39:12;;;;;;;19.63;9.32;;;;;;;15.00;74.75;102439.84;10113897;28;20528;-68
2021/09/02 21:44:20;;;;;;;15.70;9.05;;;;;;;14.88;75.06;102432.91;10129766;28;20069;-70
2021/09/02 21:49:23;;;;;;;19.73;10.15;;;;;;;14.81;75.16;102432.47;10115793;28;20130;-70
2021/09/02 21:54:24;;;;;;;20.05;9.93;;;;;;;14.71;75.92;102438.16;10140269;28;20134;-69
2021/09/02 21:59:26;;;;;;;15.48;9.20;;;;;;;14.63;76.17;102434.19;10136170;28;20093;-69
2021/09/02 22:04:27;;;;;;;20.48;9.95;;;;;;;14.57;76.17;102427.13;10134248;28;20053;-69
2021/09/02 22:09:25;;;;;;;17.58;8.85;;;;;;;14.48;76.48;102421.50;10136454;28;20043;-70
2021/09/02 22:14:36;;;;;;;18.58;9.82;;;;;;;14.43;77.16;102426.25;10137566;28;20456;-69
2021/09/02 22:19:38;;;;;;;19.20;10.88;;;;;;;14.37;77.33;102428.31;10133683;28;20053;-68
2021/09/02 22:24:39;;;;;;;19.33;10.18;;;;;;;14.31;77.46;102424.00;10138229;28;20038;-68
2021/09/02 22:29:37;;;;;;;21.67;11.25;;;;;;;14.25;77.56;102414.19;10150494;28;20082;-68
2021/09/02 22:34:35;;;;;;;23.58;11.27;;;;;;;14.21;77.65;102418.69;10145947;28;20105;-68